sensor_id;sensor_type;location;lat;lon;timestamp;pressure;altitude;pressure_sealevel;temperature;humidity
1371;BME280;14306;49.942;11.570;2022-07-19T00:01:01;98078.59;;;17.38;62.33
1371;BME280;14306;49.942;11.570;2022-07-19T00:03:29;98082.59;;;17.40;62.21
1371;BME280;14306;49.942;11.570;2022-07-19T00:05:57;98080.09;;;17.27;62.57
1371;BME280;14306;49.942;11.570;2022-07-19T00:08:25;98076.91;;;17.25;63.55
1371;BME280;14306;49.942;11.570;2022-07-19T00:10:53;98080.22;;;17.10;63.51
1371;BME280;14306;49.942;11.570;2022-07-19T00:13:23;98088.16;;;16.94;63.37
1371;BME280;14306;49.942;11.570;2022-07-19T00:15:51;98081.56;;;16.95;64.59
1371;BME280;14306;49.942;11.570;2022-07-19T00:18:19;98077.09;;;16.82;65.92
1371;BME280;14306;49.942;11.570;2022-07-19T00:20:47;98077.59;;;16.76;65.73
1371;BME280;14306;49.942;11.570;2022-07-19T00:23:15;98082.63;;;16.65;66.22
1371;BME280;14306;49.942;11.570;2022-07-19T00:25:43;98086.03;;;16.54;66.33
1371;BME280;14306;49.942;11.570;2022-07-19T00:28:11;98085.88;;;16.50;66.08
1371;BME280;14306;49.942;11.570;2022-07-19T00:30:40;98086.50;;;16.39;65.23
1371;BME280;14306;49.942;11.570;2022-07-19T00:33:08;98080.72;;;16.32;66.73
1371;BME280;14306;49.942;11.570;2022-07-19T00:35:37;98084.09;;;16.37;65.23
1371;BME280;14306;49.942;11.570;2022-07-19T00:38:06;98085.09;;;16.41;64.34
1371;BME280;14306;49.942;11.570;2022-07-19T00:40:34;98090.53;;;16.50;64.05
1371;BME280;14306;49.942;11.570;2022-07-19T00:43:03;98092.13;;;16.68;63.43
1371;BME280;14306;49.942;11.570;2022-07-19T00:45:31;98088.25;;;16.69;63.40
1371;BME280;14306;49.942;11.570;2022-07-19T00:48:01;98095.69;;;16.60;63.55
1371;BME280;14306;49.942;11.570;2022-07-19T00:50:29;98095.88;;;16.46;64.11
1371;BME280;14306;49.942;11.570;2022-07-19T00:52:59;98093.59;;;16.40;64.28
1371;BME280;14306;49.942;11.570;2022-07-19T00:55:28;98087.81;;;16.41;64.03
1371;BME280;14306;49.942;11.570;2022-07-19T00:57:57;98090.25;;;16.26;64.68
1371;BME280;14306;49.942;11.570;2022-07-19T01:00:26;98090.72;;;16.11;66.09
1371;BME280;14306;49.942;11.570;2022-07-19T01:02:55;98097.63;;;16.25;66.41
1371;BME280;14306;49.942;11.570;2022-07-19T01:05:24;98098.13;;;16.27;66.31
1371;BME280;14306;49.942;11.570;2022-07-19T01:07:52;98095.84;;;16.38;66.78
1371;BME280;14306;49.942;11.570;2022-07-19T01:10:20;98101.81;;;16.14;66.91
1371;BME280;14306;49.942;11.570;2022-07-19T01:12:48;98102.31;;;16.08;67.35
1371;BME280;14306;49.942;11.570;2022-07-19T01:15:18;98099.41;;;16.04;67.38
1371;BME280;14306;49.942;11.570;2022-07-19T01:17:47;98101.66;;;16.11;67.81
1371;BME280;14306;49.942;11.570;2022-07-19T01:20:16;98095.25;;;16.07;68.01
1371;BME280;14306;49.942;11.570;2022-07-19T01:22:46;98105.53;;;16.01;68.05
1371;BME280;14306;49.942;11.570;2022-07-19T01:25:14;98109.06;;;15.93;68.47
1371;BME280;14306;49.942;11.570;2022-07-19T01:27:44;98098.59;;;16.04;68.01
1371;BME280;14306;49.942;11.570;2022-07-19T01:30:14;98101.50;;;15.99;67.68
1371;BME280;14306;49.942;11.570;2022-07-19T01:32:43;98102.31;;;16.08;67.43
1371;BME280;14306;49.942;11.570;2022-07-19T01:35:12;98100.38;;;16.08;67.24
1371;BME280;14306;49.942;11.570;2022-07-19T01:37:40;98107.16;;;15.94;67.50
1371;BME280;14306;49.942;11.570;2022-07-19T01:40:12;98101.97;;;15.84;67.61
1371;BME280;14306;49.942;11.570;2022-07-19T01:42:40;98104.53;;;15.80;68.54
1371;BME280;14306;49.942;11.570;2022-07-19T01:45:09;98095.69;;;15.66;68.85
1371;BME280;14306;49.942;11.570;2022-07-19T01:47:38;98101.31;;;15.70;69.97
1371;BME280;14306;49.942;11.570;2022-07-19T01:50:10;98096.19;;;15.60;70.19
1371;BME280;14306;49.942;11.570;2022-07-19T01:52:39;98095.66;;;15.49;69.73
1371;BME280;14306;49.942;11.570;2022-07-19T01:55:16;98096.97;;;15.52;69.91
1371;BME280;14306;49.942;11.570;2022-07-19T01:57:44;98097.59;;;15.57;69.35
1371;BME280;14306;49.942;11.570;2022-07-19T02:00:13;98101.16;;;15.66;69.70
1371;BME280;14306;49.942;11.570;2022-07-19T02:02:41;98103.72;;;15.63;69.57
1371;BME280;14306;49.942;11.570;2022-07-19T02:05:09;98097.59;;;15.57;69.60
1371;BME280;14306;49.942;11.570;2022-07-19T02:07:38;98097.13;;;15.55;70.22
1371;BME280;14306;49.942;11.570;2022-07-19T02:10:07;98096.78;;;15.48;70.34
1371;BME280;14306;49.942;11.570;2022-07-19T02:12:37;98095.88;;;15.61;70.44
1371;BME280;14306;49.942;11.570;2022-07-19T02:15:06;98095.53;;;15.54;70.36
1371;BME280;14306;49.942;11.570;2022-07-19T02:17:34;98094.38;;;15.46;70.56
1371;BME280;14306;49.942;11.570;2022-07-19T02:20:03;98086.38;;;15.50;70.56
1371;BME280;14306;49.942;11.570;2022-07-19T02:22:31;98090.22;;;15.57;70.49
1371;BME280;14306;49.942;11.570;2022-07-19T02:24:59;98097.44;;;15.53;70.36
1371;BME280;14306;49.942;11.570;2022-07-19T02:27:27;98092.47;;;15.47;70.58
1371;BME280;14306;49.942;11.570;2022-07-19T02:29:57;98096.59;;;15.36;70.99
1371;BME280;14306;49.942;11.570;2022-07-19T02:32:25;98098.97;;;15.29;71.81
1371;BME280;14306;49.942;11.570;2022-07-19T02:34:53;98099.13;;;15.24;72.17
1371;BME280;14306;49.942;11.570;2022-07-19T02:37:21;98095.38;;;15.11;72.93
1371;BME280;14306;49.942;11.570;2022-07-19T02:39:49;98100.00;;;15.11;72.83
1371;BME280;14306;49.942;11.570;2022-07-19T02:42:17;98095.88;;;15.22;72.01
1371;BME280;14306;49.942;11.570;2022-07-19T02:44:45;98095.53;;;15.06;72.60
1371;BME280;14306;49.942;11.570;2022-07-19T02:47:14;98098.97;;;14.90;72.97
1371;BME280;14306;49.942;11.570;2022-07-19T02:49:42;98108.09;;;14.85;73.70
1371;BME280;14306;49.942;11.570;2022-07-19T02:52:09;98100.38;;;14.79;73.82
1371;BME280;14306;49.942;11.570;2022-07-19T02:54:38;98101.34;;;14.83;73.50
1371;BME280;14306;49.942;11.570;2022-07-19T02:57:05;98096.72;;;14.83;73.21
1371;BME280;14306;49.942;11.570;2022-07-19T02:59:34;98107.13;;;14.81;73.45
1371;BME280;14306;49.942;11.570;2022-07-19T03:02:01;98106.44;;;14.67;74.39
1371;BME280;14306;49.942;11.570;2022-07-19T03:04:31;98100.22;;;14.75;74.12
1371;BME280;14306;49.942;11.570;2022-07-19T03:06:59;98107.13;;;14.81;73.73
1371;BME280;14306;49.942;11.570;2022-07-19T03:09:27;98098.25;;;14.76;74.00
1371;BME280;14306;49.942;11.570;2022-07-19T03:11:55;98105.16;;;14.73;74.04
1371;BME280;14306;49.942;11.570;2022-07-19T03:14:23;98106.66;;;14.79;73.85
1371;BME280;14306;49.942;11.570;2022-07-19T03:16:51;98103.91;;;14.79;73.89
1371;BME280;14306;49.942;11.570;2022-07-19T03:19:19;98109.06;;;14.81;73.52
1371;BME280;14306;49.942;11.570;2022-07-19T03:21:48;98104.84;;;14.75;73.71
1371;BME280;14306;49.942;11.570;2022-07-19T03:24:16;98101.91;;;14.63;73.83
1371;BME280;14306;49.942;11.570;2022-07-19T03:26:44;98101.09;;;14.62;74.51
1371;BME280;14306;49.942;11.570;2022-07-19T03:29:12;98107.53;;;14.66;74.30
1371;BME280;14306;49.942;11.570;2022-07-19T03:31:40;98105.00;;;14.70;74.10
1371;BME280;14306;49.942;11.570;2022-07-19T03:34:09;98102.44;;;14.73;73.91
1371;BME280;14306;49.942;11.570;2022-07-19T03:36:37;98103.03;;;14.62;74.12
1371;BME280;14306;49.942;11.570;2022-07-19T03:39:06;98103.41;;;14.77;73.71
1371;BME280;14306;49.942;11.570;2022-07-19T03:41:34;98110.03;;;14.85;73.97
1371;BME280;14306;49.942;11.570;2022-07-19T03:44:03;98110.09;;;15.02;73.57
1371;BME280;14306;49.942;11.570;2022-07-19T03:46:30;98108.69;;;15.52;72.86
1371;BME280;14306;49.942;11.570;2022-07-19T03:48:59;98106.31;;;16.19;71.17
1371;BME280;14306;49.942;11.570;2022-07-19T03:51:27;98108.31;;;16.81;69.04
1371;BME280;14306;49.942;11.570;2022-07-19T03:53:54;98106.19;;;17.62;67.15
1371;BME280;14306;49.942;11.570;2022-07-19T03:56:24;98102.59;;;18.31;64.03
1371;BME280;14306;49.942;11.570;2022-07-19T03:58:52;98101.31;;;18.94;62.01
1371;BME280;14306;49.942;11.570;2022-07-19T04:01:20;98101.25;;;19.75;59.22
1371;BME280;14306;49.942;11.570;2022-07-19T04:04:00;98096.06;;;20.37;57.89
1371;BME280;14306;49.942;11.570;2022-07-19T04:06:28;98105.09;;;20.92;54.48
1371;BME280;14306;49.942;11.570;2022-07-19T04:08:56;98099.69;;;21.58;53.27
1371;BME280;14306;49.942;11.570;2022-07-19T04:11:25;98099.66;;;22.08;50.38
1371;BME280;14306;49.942;11.570;2022-07-19T04:13:53;98092.88;;;22.82;48.68
1371;BME280;14306;49.942;11.570;2022-07-19T04:16:21;98090.63;;;22.87;47.90
1371;BME280;14306;49.942;11.570;2022-07-19T04:18:49;98087.59;;;23.63;46.14
1371;BME280;14306;49.942;11.570;2022-07-19T04:21:17;98090.38;;;24.48;43.80
1371;BME280;14306;49.942;11.570;2022-07-19T04:23:45;98091.38;;;24.99;42.68
1371;BME280;14306;49.942;11.570;2022-07-19T04:26:13;98097.13;;;25.20;41.81
1371;BME280;14306;49.942;11.570;2022-07-19T04:28:43;98090.09;;;26.45;39.51
1371;BME280;14306;49.942;11.570;2022-07-19T04:31:11;98100.16;;;26.71;37.97
1371;BME280;14306;49.942;11.570;2022-07-19T04:33:47;98091.56;;;27.67;35.88
1371;BME280;14306;49.942;11.570;2022-07-19T04:36:16;98101.00;;;26.85;36.82
1371;BME280;14306;49.942;11.570;2022-07-19T04:38:44;98106.19;;;27.01;36.46
1371;BME280;14306;49.942;11.570;2022-07-19T04:41:11;98099.88;;;27.81;35.60
1371;BME280;14306;49.942;11.570;2022-07-19T04:43:41;98099.50;;;27.96;34.73
1371;BME280;14306;49.942;11.570;2022-07-19T04:46:09;98098.84;;;28.82;33.14
1371;BME280;14306;49.942;11.570;2022-07-19T04:48:37;98098.94;;;28.64;33.12
1371;BME280;14306;49.942;11.570;2022-07-19T04:51:08;98099.41;;;29.21;32.52
1371;BME280;14306;49.942;11.570;2022-07-19T04:53:35;98099.38;;;30.20;31.22
1371;BME280;14306;49.942;11.570;2022-07-19T04:56:05;98107.41;;;30.18;30.42
1371;BME280;14306;49.942;11.570;2022-07-19T04:58:34;98096.38;;;31.31;29.16
1371;BME280;14306;49.942;11.570;2022-07-19T05:01:04;98102.56;;;31.45;28.86
1371;BME280;14306;49.942;11.570;2022-07-19T05:03:32;98109.88;;;32.08;28.34
1371;BME280;14306;49.942;11.570;2022-07-19T05:06:00;98113.56;;;32.68;27.20
1371;BME280;14306;49.942;11.570;2022-07-19T05:08:28;98104.06;;;31.99;27.64
1371;BME280;14306;49.942;11.570;2022-07-19T05:10:56;98101.81;;;32.92;26.64
1371;BME280;14306;49.942;11.570;2022-07-19T05:13:24;98100.91;;;33.66;25.99
1371;BME280;14306;49.942;11.570;2022-07-19T05:15:53;98108.91;;;35.14;24.16
1371;BME280;14306;49.942;11.570;2022-07-19T05:18:22;98109.53;;;34.93;23.69
1371;BME280;14306;49.942;11.570;2022-07-19T05:20:50;98114.66;;;35.73;23.27
1371;BME280;14306;49.942;11.570;2022-07-19T05:23:18;98103.38;;;34.69;24.64
1371;BME280;14306;49.942;11.570;2022-07-19T05:25:46;98104.59;;;33.79;25.07
1371;BME280;14306;49.942;11.570;2022-07-19T05:28:14;98110.88;;;34.31;24.50
1371;BME280;14306;49.942;11.570;2022-07-19T05:30:42;98102.03;;;34.74;24.05
1371;BME280;14306;49.942;11.570;2022-07-19T05:33:10;98113.22;;;34.49;24.28
1371;BME280;14306;49.942;11.570;2022-07-19T05:35:40;98109.81;;;35.48;23.22
1371;BME280;14306;49.942;11.570;2022-07-19T05:38:08;98103.00;;;35.96;23.27
1371;BME280;14306;49.942;11.570;2022-07-19T05:40:36;98106.47;;;36.13;22.64
1371;BME280;14306;49.942;11.570;2022-07-19T05:43:04;98108.53;;;37.11;21.84
1371;BME280;14306;49.942;11.570;2022-07-19T05:45:32;98115.50;;;36.54;22.23
1371;BME280;14306;49.942;11.570;2022-07-19T05:48:00;98109.38;;;37.20;21.50
1371;BME280;14306;49.942;11.570;2022-07-19T05:50:32;98108.53;;;37.90;20.63
1371;BME280;14306;49.942;11.570;2022-07-19T05:53:01;98107.69;;;38.47;20.51
1371;BME280;14306;49.942;11.570;2022-07-19T05:55:29;98115.50;;;39.24;19.74
1371;BME280;14306;49.942;11.570;2022-07-19T05:57:57;98116.94;;;39.20;19.31
1371;BME280;14306;49.942;11.570;2022-07-19T06:00:25;98111.72;;;37.52;21.07
1371;BME280;14306;49.942;11.570;2022-07-19T06:02:53;98103.75;;;38.81;20.49
1371;BME280;14306;49.942;11.570;2022-07-19T06:05:21;98111.78;;;38.73;19.99
1371;BME280;14306;49.942;11.570;2022-07-19T06:07:49;98105.69;;;39.43;19.35
1371;BME280;14306;49.942;11.570;2022-07-19T06:10:20;98098.69;;;40.33;18.30
1371;BME280;14306;49.942;11.570;2022-07-19T06:12:48;98104.16;;;41.91;16.81
1371;BME280;14306;49.942;11.570;2022-07-19T06:15:25;98094.59;;;41.01;18.02
1371;BME280;14306;49.942;11.570;2022-07-19T06:17:53;98105.31;;;41.35;17.46
1371;BME280;14306;49.942;11.570;2022-07-19T06:20:21;98095.31;;;41.10;16.87
1371;BME280;14306;49.942;11.570;2022-07-19T06:22:49;98101.50;;;40.56;17.57
1371;BME280;14306;49.942;11.570;2022-07-19T06:25:17;98098.97;;;40.20;17.69
1371;BME280;14306;49.942;11.570;2022-07-19T06:27:47;98099.88;;;40.03;18.04
1371;BME280;14306;49.942;11.570;2022-07-19T06:30:15;98099.38;;;40.28;17.28
1371;BME280;14306;49.942;11.570;2022-07-19T06:32:43;98092.44;;;39.40;17.95
1371;BME280;14306;49.942;11.570;2022-07-19T06:35:11;98088.00;;;40.04;18.00
1371;BME280;14306;49.942;11.570;2022-07-19T06:37:38;98099.91;;;41.37;16.88
1371;BME280;14306;49.942;11.570;2022-07-19T06:40:07;98098.47;;;41.76;16.26
1371;BME280;14306;49.942;11.570;2022-07-19T06:42:36;98094.13;;;40.73;16.59
1371;BME280;14306;49.942;11.570;2022-07-19T06:45:07;98094.44;;;41.48;15.84
1371;BME280;14306;49.942;11.570;2022-07-19T06:47:39;98091.56;;;42.37;15.57
1371;BME280;14306;49.942;11.570;2022-07-19T06:50:10;98090.19;;;41.93;15.75
1371;BME280;14306;49.942;11.570;2022-07-19T06:53:01;98093.50;;;42.26;15.50
1371;BME280;14306;49.942;11.570;2022-07-19T06:55:31;98082.19;;;42.57;15.90
1371;BME280;14306;49.942;11.570;2022-07-19T06:58:02;98086.50;;;42.67;15.86
1371;BME280;14306;49.942;11.570;2022-07-19T07:00:37;98089.34;;;43.18;14.98
1371;BME280;14306;49.942;11.570;2022-07-19T07:03:05;98095.34;;;43.51;14.89
1371;BME280;14306;49.942;11.570;2022-07-19T07:05:34;98084.78;;;42.55;15.25
1371;BME280;14306;49.942;11.570;2022-07-19T07:08:02;98092.78;;;43.89;14.60
1371;BME280;14306;49.942;11.570;2022-07-19T07:10:31;98078.91;;;43.40;15.03
1371;BME280;14306;49.942;11.570;2022-07-19T07:13:00;98093.59;;;43.59;15.05
1371;BME280;14306;49.942;11.570;2022-07-19T07:15:32;98091.28;;;43.32;15.11
1371;BME280;14306;49.942;11.570;2022-07-19T07:18:02;98084.22;;;42.51;15.29
1371;BME280;14306;49.942;11.570;2022-07-19T07:20:30;98077.50;;;43.30;14.81
1371;BME280;14306;49.942;11.570;2022-07-19T07:22:58;98076.81;;;43.10;15.50
1371;BME280;14306;49.942;11.570;2022-07-19T07:25:26;98094.16;;;42.81;15.56
1371;BME280;14306;49.942;11.570;2022-07-19T07:27:53;98084.81;;;44.63;14.28
1371;BME280;14306;49.942;11.570;2022-07-19T07:30:22;98087.88;;;44.54;14.37
1371;BME280;14306;49.942;11.570;2022-07-19T07:32:50;98076.28;;;46.06;13.11
1371;BME280;14306;49.942;11.570;2022-07-19T07:35:19;98076.22;;;46.23;13.22
1371;BME280;14306;49.942;11.570;2022-07-19T07:37:47;98077.59;;;45.89;13.19
1371;BME280;14306;49.942;11.570;2022-07-19T07:40:15;98068.97;;;46.00;13.39
1371;BME280;14306;49.942;11.570;2022-07-19T07:42:43;98076.56;;;46.60;13.17
1371;BME280;14306;49.942;11.570;2022-07-19T07:45:12;98066.84;;;47.09;12.09
1371;BME280;14306;49.942;11.570;2022-07-19T07:47:41;98067.47;;;45.16;13.64
1371;BME280;14306;49.942;11.570;2022-07-19T07:50:10;98069.91;;;46.76;12.21
1371;BME280;14306;49.942;11.570;2022-07-19T07:52:39;98065.75;;;46.31;12.95
1371;BME280;14306;49.942;11.570;2022-07-19T07:55:08;98061.44;;;46.59;12.79
1371;BME280;14306;49.942;11.570;2022-07-19T07:57:55;98062.59;;;46.29;12.75
1371;BME280;14306;49.942;11.570;2022-07-19T08:00:25;98057.25;;;47.36;12.12
1371;BME280;14306;49.942;11.570;2022-07-19T08:02:53;98058.50;;;47.70;12.27
1371;BME280;14306;49.942;11.570;2022-07-19T08:05:21;98054.19;;;44.91;13.74
1371;BME280;14306;49.942;11.570;2022-07-19T08:07:51;98053.19;;;45.33;13.62
1371;BME280;14306;49.942;11.570;2022-07-19T08:10:21;98053.94;;;45.00;13.76
1371;BME280;14306;49.942;11.570;2022-07-19T08:12:50;98050.88;;;44.28;14.46
1371;BME280;14306;49.942;11.570;2022-07-19T08:15:18;98056.81;;;46.45;13.13
1371;BME280;14306;49.942;11.570;2022-07-19T08:17:47;98053.16;;;45.77;13.58
1371;BME280;14306;49.942;11.570;2022-07-19T08:20:15;98048.97;;;45.78;13.50
1371;BME280;14306;49.942;11.570;2022-07-19T08:22:43;98051.81;;;45.67;13.31
1371;BME280;14306;49.942;11.570;2022-07-19T08:25:12;98048.97;;;45.17;14.19
1371;BME280;14306;49.942;11.570;2022-07-19T08:27:43;98053.03;;;46.67;12.65
1371;BME280;14306;49.942;11.570;2022-07-19T08:30:12;98051.16;;;47.15;12.31
1371;BME280;14306;49.942;11.570;2022-07-19T08:32:41;98056.75;;;46.56;12.63
1371;BME280;14306;49.942;11.570;2022-07-19T08:35:10;98046.13;;;49.16;11.37
1371;BME280;14306;49.942;11.570;2022-07-19T08:37:38;98046.88;;;48.66;11.69
1371;BME280;14306;49.942;11.570;2022-07-19T08:40:07;98036.78;;;48.17;11.67
1371;BME280;14306;49.942;11.570;2022-07-19T08:42:37;98039.84;;;48.25;11.62
1371;BME280;14306;49.942;11.570;2022-07-19T08:45:07;98037.03;;;46.42;12.45
1371;BME280;14306;49.942;11.570;2022-07-19T08:47:37;98040.66;;;44.97;13.67
1371;BME280;14306;49.942;11.570;2022-07-19T08:50:07;98034.25;;;44.27;14.17
1371;BME280;14306;49.942;11.570;2022-07-19T08:52:35;98030.91;;;46.05;13.05
1371;BME280;14306;49.942;11.570;2022-07-19T08:55:05;98027.50;;;46.12;13.08
1371;BME280;14306;49.942;11.570;2022-07-19T08:57:33;98011.72;;;46.81;12.69
1371;BME280;14306;49.942;11.570;2022-07-19T09:00:20;98023.03;;;49.34;11.26
1371;BME280;14306;49.942;11.570;2022-07-19T09:02:59;98031.63;;;49.66;10.26
1371;BME280;14306;49.942;11.570;2022-07-19T09:05:29;98028.94;;;49.55;10.27
1371;BME280;14306;49.942;11.570;2022-07-19T09:08:07;98026.59;;;48.59;10.47
1371;BME280;14306;49.942;11.570;2022-07-19T09:10:38;98014.59;;;47.94;11.01
1371;BME280;14306;49.942;11.570;2022-07-19T09:13:08;98026.63;;;49.22;10.18
1371;BME280;14306;49.942;11.570;2022-07-19T09:15:41;98021.94;;;49.06;10.43
1371;BME280;14306;49.942;11.570;2022-07-19T09:18:11;98017.69;;;48.75;10.16
1371;BME280;14306;49.942;11.570;2022-07-19T09:20:40;98016.78;;;49.62;9.90
1371;BME280;14306;49.942;11.570;2022-07-19T09:23:09;98006.25;;;50.03;9.52
1371;BME280;14306;49.942;11.570;2022-07-19T09:25:38;98016.28;;;47.60;11.27
1371;BME280;14306;49.942;11.570;2022-07-19T09:28:09;98012.31;;;48.85;10.22
1371;BME280;14306;49.942;11.570;2022-07-19T09:30:40;98007.91;;;49.73;10.23
1371;BME280;14306;49.942;11.570;2022-07-19T09:33:14;98002.81;;;50.65;9.47
1371;BME280;14306;49.942;11.570;2022-07-19T09:35:44;97997.47;;;50.09;9.73
1371;BME280;14306;49.942;11.570;2022-07-19T09:38:18;98010.41;;;49.06;10.13
1371;BME280;14306;49.942;11.570;2022-07-19T09:40:46;98008.59;;;47.08;10.71
1371;BME280;14306;49.942;11.570;2022-07-19T09:43:15;98012.31;;;48.48;10.24
1371;BME280;14306;49.942;11.570;2022-07-19T09:46:05;98005.41;;;48.19;10.21
1371;BME280;14306;49.942;11.570;2022-07-19T09:48:42;98007.41;;;48.98;10.26
1371;BME280;14306;49.942;11.570;2022-07-19T09:51:11;98012.63;;;49.44;9.50
1371;BME280;14306;49.942;11.570;2022-07-19T09:53:42;98000.03;;;49.16;9.77
1371;BME280;14306;49.942;11.570;2022-07-19T09:56:10;98005.56;;;49.71;9.53
1371;BME280;14306;49.942;11.570;2022-07-19T09:58:39;98014.53;;;50.20;9.09
1371;BME280;14306;49.942;11.570;2022-07-19T10:01:11;98008.94;;;48.07;9.66
1371;BME280;14306;49.942;11.570;2022-07-19T10:03:40;98012.34;;;48.29;9.40
1371;BME280;14306;49.942;11.570;2022-07-19T10:06:17;98004.56;;;46.12;11.22
1371;BME280;14306;49.942;11.570;2022-07-19T10:08:45;98004.84;;;46.89;10.33
1371;BME280;14306;49.942;11.570;2022-07-19T10:11:13;98005.19;;;47.15;10.53
1371;BME280;14306;49.942;11.570;2022-07-19T10:13:41;98003.31;;;48.38;9.61
1371;BME280;14306;49.942;11.570;2022-07-19T10:16:17;97993.13;;;49.19;8.88
1371;BME280;14306;49.942;11.570;2022-07-19T10:18:54;97994.69;;;46.88;11.05
1371;BME280;14306;49.942;11.570;2022-07-19T10:21:29;97997.84;;;47.20;10.16
1371;BME280;14306;49.942;11.570;2022-07-19T10:23:57;97988.03;;;45.50;11.22
1371;BME280;14306;49.942;11.570;2022-07-19T10:26:33;97979.88;;;47.08;10.85
1371;BME280;14306;49.942;11.570;2022-07-19T10:29:10;97975.31;;;47.54;10.22
1371;BME280;14306;49.942;11.570;2022-07-19T10:31:41;97978.59;;;42.40;12.94
1371;BME280;14306;49.942;11.570;2022-07-19T10:34:12;97976.16;;;43.93;12.44
1371;BME280;14306;49.942;11.570;2022-07-19T10:36:48;97971.16;;;44.80;11.82
1371;BME280;14306;49.942;11.570;2022-07-19T10:39:26;97962.03;;;46.56;10.57
1371;BME280;14306;49.942;11.570;2022-07-19T10:42:10;97965.75;;;46.00;11.08
1371;BME280;14306;49.942;11.570;2022-07-19T10:48:04;97963.16;;;45.91;11.31
1371;BME280;14306;49.942;11.570;2022-07-19T10:50:57;97965.22;;;43.92;12.34
1371;BME280;14306;49.942;11.570;2022-07-19T10:53:54;97956.56;;;45.39;11.32
1371;BME280;14306;49.942;11.570;2022-07-19T10:56:27;97959.28;;;44.06;12.44
1371;BME280;14306;49.942;11.570;2022-07-19T10:58:57;97960.09;;;45.78;11.51
1371;BME280;14306;49.942;11.570;2022-07-19T11:01:27;97954.16;;;46.97;10.58
1371;BME280;14306;49.942;11.570;2022-07-19T11:04:23;97956.34;;;46.05;11.18
1371;BME280;14306;49.942;11.570;2022-07-19T11:07:09;97937.53;;;46.90;11.12
1371;BME280;14306;49.942;11.570;2022-07-19T11:09:42;97945.09;;;46.12;10.54
1371;BME280;14306;49.942;11.570;2022-07-19T11:12:31;97942.50;;;45.19;11.20
1371;BME280;14306;49.942;11.570;2022-07-19T11:15:05;97942.25;;;45.33;10.94
1371;BME280;14306;49.942;11.570;2022-07-19T11:17:50;97935.66;;;46.93;10.13
1371;BME280;14306;49.942;11.570;2022-07-19T11:20:22;97937.88;;;44.94;11.16
1371;BME280;14306;49.942;11.570;2022-07-19T11:22:51;97937.75;;;42.79;12.23
1371;BME280;14306;49.942;11.570;2022-07-19T11:25:27;97927.41;;;44.24;11.91
1371;BME280;14306;49.942;11.570;2022-07-19T11:27:56;97929.06;;;43.83;11.64
1371;BME280;14306;49.942;11.570;2022-07-19T11:30:26;97927.53;;;43.82;11.85
1371;BME280;14306;49.942;11.570;2022-07-19T11:32:57;97920.88;;;43.54;12.14
1371;BME280;14306;49.942;11.570;2022-07-19T11:35:27;97920.38;;;42.01;13.10
1371;BME280;14306;49.942;11.570;2022-07-19T11:37:57;97924.72;;;43.04;12.58
1371;BME280;14306;49.942;11.570;2022-07-19T11:40:32;97918.50;;;43.42;12.55
1371;BME280;14306;49.942;11.570;2022-07-19T11:43:04;97912.84;;;43.64;12.76
1371;BME280;14306;49.942;11.570;2022-07-19T11:45:44;97916.22;;;44.43;11.83
1371;BME280;14306;49.942;11.570;2022-07-19T11:48:23;97908.38;;;42.73;13.34
1371;BME280;14306;49.942;11.570;2022-07-19T11:51:01;97908.06;;;41.89;13.39
1371;BME280;14306;49.942;11.570;2022-07-19T11:53:30;97908.44;;;40.87;14.07
1371;BME280;14306;49.942;11.570;2022-07-19T11:55:58;97901.94;;;41.96;13.42
1371;BME280;14306;49.942;11.570;2022-07-19T11:58:26;97898.47;;;41.67;13.85
1371;BME280;14306;49.942;11.570;2022-07-19T12:01:01;97896.47;;;42.75;12.34
1371;BME280;14306;49.942;11.570;2022-07-19T12:03:29;97896.00;;;41.80;13.52
1371;BME280;14306;49.942;11.570;2022-07-19T12:06:01;97894.41;;;41.33;13.86
1371;BME280;14306;49.942;11.570;2022-07-19T12:08:38;97889.44;;;40.79;14.06
1371;BME280;14306;49.942;11.570;2022-07-19T12:11:16;97892.72;;;40.28;14.56
1371;BME280;14306;49.942;11.570;2022-07-19T12:13:45;97895.91;;;39.31;15.46
1371;BME280;14306;49.942;11.570;2022-07-19T12:16:16;97892.19;;;39.86;15.24
1371;BME280;14306;49.942;11.570;2022-07-19T12:18:48;97879.75;;;39.46;15.46
1371;BME280;14306;49.942;11.570;2022-07-19T12:21:38;97877.59;;;39.32;15.53
1371;BME280;14306;49.942;11.570;2022-07-19T12:24:17;97870.16;;;38.87;15.97
1371;BME280;14306;49.942;11.570;2022-07-19T12:26:58;97869.16;;;39.46;15.54
1371;BME280;14306;49.942;11.570;2022-07-19T12:29:28;97874.88;;;39.14;15.25
1371;BME280;14306;49.942;11.570;2022-07-19T12:31:58;97876.16;;;39.13;15.34
1371;BME280;14306;49.942;11.570;2022-07-19T12:34:27;97869.16;;;38.67;15.54
1371;BME280;14306;49.942;11.570;2022-07-19T12:36:57;97870.06;;;39.05;15.75
1371;BME280;14306;49.942;11.570;2022-07-19T12:39:28;97865.91;;;37.81;17.13
1371;BME280;14306;49.942;11.570;2022-07-19T12:42:04;97866.84;;;37.60;16.91
1371;BME280;14306;49.942;11.570;2022-07-19T12:44:33;97859.16;;;37.70;17.07
1371;BME280;14306;49.942;11.570;2022-07-19T12:47:02;97859.66;;;36.44;17.97
1371;BME280;14306;49.942;11.570;2022-07-19T12:49:50;97856.41;;;37.03;18.06
1371;BME280;14306;49.942;11.570;2022-07-19T12:52:33;97854.03;;;37.02;17.81
1371;BME280;14306;49.942;11.570;2022-07-19T12:55:01;97850.78;;;37.12;17.65
1371;BME280;14306;49.942;11.570;2022-07-19T12:57:32;97855.28;;;37.01;17.87
1371;BME280;14306;49.942;11.570;2022-07-19T13:00:01;97855.19;;;36.65;18.13
1371;BME280;14306;49.942;11.570;2022-07-19T13:02:30;97852.81;;;36.63;17.75
1371;BME280;14306;49.942;11.570;2022-07-19T13:04:58;97856.66;;;36.78;17.28
1371;BME280;14306;49.942;11.570;2022-07-19T13:07:26;97843.28;;;36.30;17.57
1371;BME280;14306;49.942;11.570;2022-07-19T13:09:55;97843.06;;;35.94;18.31
1371;BME280;14306;49.942;11.570;2022-07-19T13:12:23;97847.50;;;35.61;18.20
1371;BME280;14306;49.942;11.570;2022-07-19T13:14:51;97849.03;;;35.19;18.62
1371;BME280;14306;49.942;11.570;2022-07-19T13:17:19;97841.56;;;35.25;18.66
1371;BME280;14306;49.942;11.570;2022-07-19T13:19:47;97832.75;;;35.35;18.76